Archival Weather

Norman Y Mineta San Jose Intl

San Jose, California (KSJC)

Report from: Saturday, February 17, 2024 10:53 AM PST
Current time: Monday, June 24, 2024 2:31 AM PDT

Current weather – Weather history – Daily summaries
Weather forecast

Present weatherLight rain
Temperature13.9°C (57.0°F)
Dew point8.9°C (48.0°F)
Winds 13 kts (6.7 m/s, 15 mph) Southeast (130°)
Visibility10 mi. (16.1 km)
Clouds Scattered clouds 2,800 ft. (853 m)
Ceiling: Broken clouds 6,500 ft. (1,981 m)
Overcast 9,000 ft. (2,743 m)
Altimeter29.97 in.Hg (1015 mB)
Precipitiation0.01 in. (0 mm)
Relative humidity72 %
Density altitude-20 ft. (-6 m)
Sea-level pressure101.5 kPa (1015 mB, 29.97 in.Hg)
Remarks Automated weather observing station with precipitation discriminator
Flight conditions Visual Meteorological Conditions
Raw dataKSJC 171853Z 13013KT 10SM -RA SCT028 BKN065 OVC090 14/09 A2997 RMK AO2 SLP148 P0001 T01390089
An error has occurred. This application may no longer respond until reloaded. Reload 🗙